Time;durP1;ratioP1;P1;durP2;ratioP2;P2;SDS_P1;SDS_P2;PMS_P1;PMS_P2;Temp;Humidity;BMP_temperature;BMP_pressure;BME280_temperature;BME280_humidity;BME280_pressure;Samples;Min_cycle;Max_cycle;Signal;HPM_P1;HPM_P2
2020/12/01 00:01:12;;;;;;;19.00;10.60;;;;;;;1.64;63.75;101608.23;1759196;80;21381;-63
2020/12/01 00:03:40;;;;;;;16.97;9.15;;;;;;;1.65;63.97;101608.66;1700774;83;21605;-63
2020/12/01 00:06:08;;;;;;;20.15;11.15;;;;;;;1.64;64.14;101606.94;1710565;82;21141;-63
2020/12/01 00:08:37;;;;;;;18.87;11.53;;;;;;;1.64;64.21;101606.94;1712898;83;21653;-62
2020/12/01 00:11:06;;;;;;;17.70;11.22;;;;;;;1.65;63.95;101611.71;1712326;83;21168;-63
2020/12/01 00:13:34;;;;;;;19.37;11.30;;;;;;;1.64;64.00;101622.52;1712494;82;21623;-63
2020/12/01 00:16:02;;;;;;;19.20;11.12;;;;;;;1.66;63.98;101623.78;1714066;83;21216;-63
2020/12/01 00:18:29;;;;;;;27.60;11.93;;;;;;;1.66;63.95;101631.56;1760848;80;21168;-62
2020/12/01 00:20:57;;;;;;;18.02;10.68;;;;;;;1.68;63.77;101632.38;1760033;80;22014;-63
2020/12/01 00:23:24;;;;;;;18.25;11.45;;;;;;;1.60;63.90;101626.08;1758454;80;21519;-63
2020/12/01 00:25:52;;;;;;;21.23;10.40;;;;;;;1.63;64.13;101622.55;1760936;80;22702;-63
2020/12/01 00:28:20;;;;;;;21.52;10.38;;;;;;;1.62;64.26;101624.30;1701503;82;21170;-63
2020/12/01 00:30:49;;;;;;;17.48;10.13;;;;;;;1.69;64.12;101628.06;1759111;80;21211;-62
2020/12/01 00:33:17;;;;;;;16.42;11.33;;;;;;;1.66;64.11;101631.14;1762146;80;21168;-62
2020/12/01 00:35:44;;;;;;;20.10;11.95;;;;;;;1.65;64.13;101626.83;1698918;83;21187;-64
2020/12/01 00:38:12;;;;;;;18.37;9.83;;;;;;;1.64;64.12;101630.75;1760167;80;23616;-64
2020/12/01 00:40:39;;;;;;;20.60;11.65;;;;;;;1.64;64.31;101629.45;1759168;80;21790;-63
2020/12/01 00:43:06;;;;;;;21.12;10.98;;;;;;;1.62;64.41;101623.00;1760263;80;21213;-64
2020/12/01 00:45:34;;;;;;;20.90;10.63;;;;;;;1.64;64.29;101621.67;1760798;80;22200;-64
2020/12/01 00:48:01;;;;;;;22.45;10.48;;;;;;;1.60;64.48;101623.94;1760012;80;21758;-63
2020/12/01 00:50:29;;;;;;;23.75;11.53;;;;;;;1.57;64.52;101627.89;1760552;80;21211;-63
2020/12/01 00:52:56;;;;;;;21.12;11.55;;;;;;;1.52;64.58;101624.09;1760065;80;22643;-63
2020/12/01 00:55:25;;;;;;;19.60;11.20;;;;;;;1.49;64.71;101618.97;1759167;80;21196;-63
2020/12/01 00:57:54;;;;;;;17.92;10.72;;;;;;;1.48;64.97;101622.48;1761455;80;21121;-64
2020/12/01 01:00:24;;;;;;;18.70;11.93;;;;;;;1.50;64.87;101614.20;1760822;80;21739;-64
2020/12/01 01:03:08;;;;;;;16.85;10.20;;;;;;;1.51;64.89;101609.41;1801936;78;22742;-64
2020/12/01 01:05:35;;;;;;;14.28;9.13;;;;;;;1.49;64.83;101617.67;1773278;80;21198;-64
2020/12/01 01:08:03;;;;;;;19.87;11.43;;;;;;;1.47;64.96;101631.13;1732715;81;22186;-64
2020/12/01 01:10:31;;;;;;;19.40;9.88;;;;;;;1.50;65.02;101624.58;1702073;81;21153;-64
2020/12/01 01:13:01;;;;;;;16.30;10.10;;;;;;;1.49;64.98;101621.56;1703199;82;22646;-64
2020/12/01 01:15:32;;;;;;;16.45;9.93;;;;;;;1.48;64.98;101618.12;1701727;81;21197;-64
2020/12/01 01:17:59;;;;;;;17.17;8.90;;;;;;;1.46;65.06;101621.62;1707935;83;22474;-64
2020/12/01 01:20:28;;;;;;;16.12;9.80;;;;;;;1.48;65.04;101625.06;1700187;83;21280;-64
2020/12/01 01:22:56;;;;;;;19.57;9.60;;;;;;;1.48;65.25;101631.09;1699690;81;21188;-65
2020/12/01 01:25:24;;;;;;;15.08;9.13;;;;;;;1.51;65.39;101630.16;1699811;81;21180;-64
2020/12/01 01:27:52;;;;;;;16.77;9.13;;;;;;;1.50;65.37;101629.77;1700220;83;21195;-61
2020/12/01 01:30:22;;;;;;;16.48;9.33;;;;;;;1.55;65.51;101625.33;1697758;82;21219;-63
2020/12/01 01:32:55;;;;;;;18.37;9.85;;;;;;;1.54;65.44;101629.25;1733714;81;21225;-64
2020/12/01 01:35:22;;;;;;;15.78;8.75;;;;;;;1.55;65.29;101636.16;1701163;82;21218;-63
2020/12/01 01:37:49;;;;;;;16.40;9.35;;;;;;;1.53;65.39;101628.83;1733129;81;21205;-62
2020/12/01 01:40:21;;;;;;;13.68;8.63;;;;;;;1.55;65.43;101620.14;1700125;83;21242;-62
2020/12/01 01:42:49;;;;;;;17.10;9.73;;;;;;;1.55;65.42;101624.48;1737486;81;21836;-63
2020/12/01 01:45:40;;;;;;;21.77;8.85;;;;;;;1.54;65.51;101626.20;1714962;83;21207;-62
2020/12/01 01:48:31;;;;;;;19.57;9.95;;;;;;;1.56;65.38;101623.13;1737212;81;21789;-63
2020/12/01 01:51:07;;;;;;;17.48;9.70;;;;;;;1.53;65.50;101628.83;1710754;83;21199;-62
2020/12/01 01:53:35;;;;;;;;;;;;;;;1.54;65.71;101631.84;1734804;81;21216;-62
2020/12/01 01:56:07;;;;;;;21.37;10.63;;;;;;;1.52;65.68;101620.66;1715318;82;20314;-64
2020/12/01 01:58:40;;;;;;;19.65;10.60;;;;;;;1.42;65.62;101614.36;1738703;81;21375;-63
2020/12/01 02:01:15;;;;;;;18.95;10.93;;;;;;;1.37;65.99;101612.77;1713107;83;21182;-64
2020/12/01 02:03:57;;;;;;;23.27;10.65;;;;;;;1.33;66.22;101609.40;1759655;80;21161;-64
2020/12/01 02:06:32;;;;;;;19.77;10.75;;;;;;;1.30;66.30;101610.30;1759431;80;21192;-64
2020/12/01 02:09:05;;;;;;;16.57;9.48;;;;;;;1.34;66.57;101607.19;1760784;80;21192;-64
2020/12/01 02:11:35;;;;;;;17.67;10.95;;;;;;;1.35;66.61;101611.50;1759861;80;22435;-64
2020/12/01 02:14:25;;;;;;;25.25;11.68;;;;;;;1.38;66.63;101607.97;1675689;83;21537;-63
2020/12/01 02:16:56;;;;;;;15.20;10.08;;;;;;;1.32;66.76;101601.19;1760726;80;21626;-63
2020/12/01 02:19:29;;;;;;;20.35;11.63;;;;;;;1.28;66.86;101615.97;1684174;83;21572;-64
2020/12/01 02:21:58;;;;;;;15.63;9.85;;;;;;;1.24;66.91;101629.87;1757428;80;21176;-64
2020/12/01 02:24:31;;;;;;;18.87;10.15;;;;;;;1.24;67.09;101640.24;1756794;80;21628;-63
2020/12/01 02:27:00;;;;;;;17.07;9.35;;;;;;;1.26;67.07;101633.73;1758420;80;21203;-65
2020/12/01 02:29:31;;;;;;;17.70;10.80;;;;;;;1.34;67.11;101634.42;1758037;80;21627;-63
2020/12/01 02:31:59;;;;;;;19.82;10.38;;;;;;;1.39;67.03;101634.33;1761087;80;21189;-64
2020/12/01 02:34:35;;;;;;;23.52;11.03;;;;;;;1.41;67.17;101644.22;1758362;80;21598;-64
2020/12/01 02:37:03;;;;;;;18.73;11.20;;;;;;;1.41;67.23;101655.47;1758769;80;21384;-63
2020/12/01 02:39:33;;;;;;;21.00;10.98;;;;;;;1.39;67.21;101658.97;1685638;84;21665;-64
2020/12/01 02:42:03;;;;;;;16.65;10.78;;;;;;;1.39;67.12;101658.97;1757844;80;21161;-63
2020/12/01 02:44:30;;;;;;;18.85;12.05;;;;;;;1.37;67.05;101660.75;1759444;80;21423;-64
2020/12/01 02:47:00;;;;;;;20.17;11.50;;;;;;;1.36;67.01;101664.22;1758471;80;21717;-63
2020/12/01 02:49:28;;;;;;;16.42;10.25;;;;;;;1.32;67.12;101660.00;1758594;80;21365;-62
2020/12/01 02:51:55;;;;;;;14.33;8.40;;;;;;;1.29;67.34;101658.31;1758433;80;22005;-62
2020/12/01 02:54:23;;;;;;;20.20;10.95;;;;;;;1.37;67.33;101647.78;1760426;80;21164;-64
2020/12/01 02:56:51;;;;;;;19.85;10.65;;;;;;;1.34;67.34;101656.92;1758558;80;21196;-64
2020/12/01 02:59:18;;;;;;;17.60;11.08;;;;;;;1.27;67.48;101653.15;1758651;80;21145;-63
2020/12/01 03:01:46;;;;;;;21.45;11.73;;;;;;;1.22;67.77;101654.14;1686283;82;23625;-64
2020/12/01 03:04:14;;;;;;;17.55;10.10;;;;;;;1.24;67.83;101651.06;1729854;82;21187;-63
2020/12/01 03:06:43;;;;;;;18.70;11.03;;;;;;;1.24;67.83;101655.80;1730330;82;21216;-63
2020/12/01 03:09:14;;;;;;;16.10;8.45;;;;;;;1.22;68.03;101651.09;1728780;82;21233;-62
2020/12/01 03:11:42;;;;;;;16.05;9.83;;;;;;;1.17;68.11;101654.23;1728660;82;21226;-62
2020/12/01 03:14:10;;;;;;;17.82;10.23;;;;;;;1.12;68.39;101649.58;1728373;82;22560;-63
2020/12/01 03:16:37;;;;;;;19.10;10.75;;;;;;;1.08;68.51;101659.16;1729560;82;22077;-63
2020/12/01 03:19:05;;;;;;;17.87;11.15;;;;;;;1.07;68.46;101658.73;1708650;83;21750;-63
2020/12/01 03:21:32;;;;;;;20.27;10.82;;;;;;;1.06;68.61;101663.53;1696645;83;22589;-63
2020/12/01 03:24:00;;;;;;;14.03;9.18;;;;;;;1.13;68.51;101658.20;1696585;83;21663;-64
2020/12/01 03:26:27;;;;;;;19.32;9.95;;;;;;;1.12;68.54;101656.06;1714092;83;21235;-65
2020/12/01 03:28:55;;;;;;;15.32;9.90;;;;;;;1.17;68.47;101665.89;1716970;82;21239;-64
2020/12/01 03:31:22;;;;;;;21.20;10.18;;;;;;;1.19;68.29;101668.01;1699481;82;21654;-62
2020/12/01 03:33:50;;;;;;;20.68;10.48;;;;;;;1.19;68.13;101665.41;1729517;82;21499;-64
2020/12/01 03:36:18;;;;;;;20.10;11.48;;;;;;;1.16;68.27;101663.33;1698559;83;21540;-67
2020/12/01 03:38:46;;;;;;;14.95;9.10;;;;;;;1.18;68.33;101658.54;1697447;83;21646;-64
2020/12/01 03:41:14;;;;;;;16.27;10.65;;;;;;;1.18;68.34;101670.20;1695565;82;22516;-64
2020/12/01 03:43:41;;;;;;;21.93;10.82;;;;;;;1.20;68.30;101664.55;1728147;82;21209;-64
2020/12/01 03:46:09;;;;;;;18.75;9.65;;;;;;;1.24;68.28;101662.28;1730640;82;21218;-65
2020/12/01 03:48:37;;;;;;;18.62;10.00;;;;;;;1.38;68.09;101652.06;1731426;82;21802;-64
2020/12/01 03:51:05;;;;;;;18.95;10.20;;;;;;;1.47;67.78;101657.07;1685706;83;21280;-62
2020/12/01 03:53:32;;;;;;;19.30;10.18;;;;;;;1.48;67.76;101660.09;1697614;82;21291;-63
2020/12/01 03:56:00;;;;;;;18.52;10.13;;;;;;;1.44;67.67;101670.94;1700159;83;21470;-63
2020/12/01 03:58:27;;;;;;;15.13;9.03;;;;;;;1.38;67.68;101669.80;1717248;82;22377;-63
2020/12/01 04:00:55;;;;;;;15.50;9.13;;;;;;;1.39;67.90;101671.94;1724755;82;21169;-64
2020/12/01 04:03:23;;;;;;;16.17;9.28;;;;;;;1.43;67.82;101670.55;1721468;82;21410;-64
2020/12/01 04:05:50;;;;;;;16.67;10.28;;;;;;;1.43;67.75;101660.17;1698843;83;21220;-65
2020/12/01 04:08:18;;;;;;;17.50;9.80;;;;;;;1.41;67.72;101655.89;1698596;83;21595;-65
2020/12/01 04:10:46;;;;;;;16.67;8.83;;;;;;;1.40;67.84;101658.09;1697110;82;21223;-62
2020/12/01 04:13:13;;;;;;;14.83;9.33;;;;;;;1.41;67.82;101648.99;1696735;83;21254;-61
2020/12/01 04:15:41;;;;;;;18.00;9.50;;;;;;;1.42;67.82;101655.86;1699460;82;21839;-61
2020/12/01 04:18:08;;;;;;;16.48;8.35;;;;;;;1.51;67.77;101652.21;1694503;82;21179;-62
2020/12/01 04:20:36;;;;;;;12.85;8.63;;;;;;;1.58;67.47;101648.62;1699041;81;21217;-61
2020/12/01 04:23:03;;;;;;;13.05;7.97;;;;;;;1.55;67.33;101634.41;1699204;82;21205;-61
2020/12/01 04:25:30;;;;;;;16.67;9.00;;;;;;;1.53;67.29;101643.10;1699483;82;21212;-61
2020/12/01 04:27:57;;;;;;;20.12;9.40;;;;;;;1.46;67.33;101651.04;1697159;82;21256;-61
2020/12/01 04:30:26;;;;;;;14.85;8.10;;;;;;;1.43;67.71;101661.89;1712006;83;21211;-62
2020/12/01 04:32:53;;;;;;;14.05;9.55;;;;;;;1.42;67.78;101656.31;1700872;82;21203;-66
2020/12/01 04:35:23;;;;;;;15.23;8.93;;;;;;;1.37;67.83;101658.16;1730866;82;21219;-62
2020/12/01 04:37:50;;;;;;;14.50;8.60;;;;;;;1.42;67.85;101649.83;1727375;82;21603;-61
2020/12/01 04:40:22;;;;;;;15.15;9.33;;;;;;;1.47;68.00;101648.83;1699403;82;21384;-63
2020/12/01 04:42:53;;;;;;;16.15;9.70;;;;;;;1.44;67.98;101646.76;1729716;82;21208;-63
2020/12/01 04:45:21;;;;;;;16.57;9.48;;;;;;;1.39;68.15;101643.41;1731746;82;21464;-62
2020/12/01 04:47:58;;;;;;;15.35;8.70;;;;;;;1.33;68.49;101648.72;1730599;82;21201;-61
2020/12/01 04:50:37;;;;;;;17.95;10.10;;;;;;;1.31;68.64;101648.75;1729605;82;21244;-61
2020/12/01 04:53:44;;;;;;;16.32;9.60;;;;;;;1.34;68.56;101654.33;1731967;82;21626;-63
2020/12/01 04:59:43;;;;;;;15.25;8.78;;;;;;;1.29;68.92;101657.88;1766116;80;21875;-58
2020/12/01 05:02:56;;;;;;;17.65;9.43;;;;;;;1.27;68.69;101667.41;1768054;80;21187;-59
2020/12/01 05:08:45;;;;;;;15.68;8.25;;;;;;;1.13;69.03;101662.97;1766912;80;21376;-60
2020/12/01 05:14:56;;;;;;;13.27;7.77;;;;;;;1.04;69.53;101662.72;1730575;81;21187;-61
2020/12/01 05:18:04;;;;;;;14.70;7.80;;;;;;;1.10;69.53;101672.09;1730999;81;21218;-61
2020/12/01 05:20:31;;;;;;;14.10;7.78;;;;;;;1.24;69.35;101666.17;1705716;81;21128;-61
2020/12/01 05:23:01;;;;;;;14.40;7.67;;;;;;;1.30;69.34;101666.51;1749682;81;21626;-62
2020/12/01 05:25:30;;;;;;;14.50;7.83;;;;;;;1.32;69.28;101662.14;1750776;80;21239;-61
2020/12/01 05:28:11;;;;;;;13.50;7.35;;;;;;;1.33;69.14;101659.09;1748798;81;21259;-60
2020/12/01 05:30:40;;;;;;;11.50;6.15;;;;;;;1.29;68.96;101661.77;1750790;80;21227;-61
2020/12/01 05:33:26;;;;;;;12.55;6.65;;;;;;;1.28;68.97;101671.72;1750951;80;21172;-60
2020/12/01 05:36:07;;;;;;;12.73;6.75;;;;;;;1.24;68.98;101675.25;1749018;80;21357;-61
2020/12/01 05:38:35;;;;;;;12.68;5.78;;;;;;;1.24;69.07;101676.55;1749813;80;21594;-60
2020/12/01 05:41:20;;;;;;;14.50;7.08;;;;;;;1.24;69.14;101667.47;1749936;81;21576;-60
2020/12/01 05:43:59;;;;;;;11.63;6.40;;;;;;;1.30;68.77;101667.36;1750483;80;21191;-62
2020/12/01 05:46:37;;;;;;;10.60;4.87;;;;;;;1.40;68.43;101672.36;1748265;80;21581;-60
2020/12/01 05:49:20;;;;;;;12.03;7.03;;;;;;;1.36;68.53;101672.00;1748861;80;21379;-60
2020/12/01 05:51:48;;;;;;;13.03;6.75;;;;;;;1.37;68.59;101675.02;1744518;80;21184;-61
2020/12/01 05:54:23;;;;;;;9.90;6.37;;;;;;;1.33;68.52;101674.23;1750961;80;21231;-61
2020/12/01 05:56:53;;;;;;;14.83;6.83;;;;;;;1.31;68.49;101677.27;1750364;80;21485;-60
2020/12/01 06:01:13;;;;;;;13.68;7.12;;;;;;;1.33;68.87;101673.35;1873366;75;23048;-61
2020/12/01 06:04:06;;;;;;;13.20;8.43;;;;;;;1.25;68.83;101675.67;1785065;78;21147;-61
2020/12/01 06:06:49;;;;;;;17.10;7.03;;;;;;;1.26;68.68;101676.09;1801579;78;21196;-61
2020/12/01 06:09:43;;;;;;;12.23;5.85;;;;;;;1.39;68.84;101677.97;1783991;78;21198;-60
2020/12/01 06:12:33;;;;;;;10.78;5.78;;;;;;;1.46;68.65;101682.59;1800121;77;21211;-60
2020/12/01 06:15:05;;;;;;;12.43;6.72;;;;;;;1.40;68.78;101688.77;1801839;77;21645;-60
2020/12/01 06:17:58;;;;;;;8.75;5.67;;;;;;;1.33;68.85;101687.62;1802735;77;21647;-60
2020/12/01 06:20:41;;;;;;;11.93;6.58;;;;;;;1.30;69.06;101695.03;1802931;77;22240;-61
2020/12/01 06:23:55;;;;;;;11.68;6.30;;;;;;;1.31;68.88;101694.13;1777795;77;21633;-61
2020/12/01 06:26:39;;;;;;;13.90;7.03;;;;;;;1.29;69.13;101690.72;1785324;77;22456;-61
2020/12/01 06:29:33;;;;;;;16.55;7.22;;;;;;;1.36;69.08;101696.22;1770010;78;21207;-59
2020/12/01 06:32:42;;;;;;;12.33;7.60;;;;;;;1.42;68.88;101689.58;1799510;77;21200;-59
2020/12/01 06:35:32;;;;;;;11.30;6.12;;;;;;;1.37;69.23;101697.06;1789662;77;21546;-59
2020/12/01 06:38:27;;;;;;;10.50;6.47;;;;;;;1.27;69.16;101694.64;1798442;77;21252;-60
2020/12/01 06:41:02;;;;;;;10.58;6.22;;;;;;;1.21;69.19;101693.48;1801288;77;22602;-60
2020/12/01 06:43:37;;;;;;;;;;;;;;;1.22;69.60;101695.63;1784743;78;21253;-60
2020/12/01 06:46:41;;;;;;;12.35;6.50;;;;;;;1.25;69.57;101693.83;1780224;78;20333;-60
2020/12/01 06:49:16;;;;;;;11.88;6.50;;;;;;;1.34;69.50;101698.41;1806871;78;22972;-59
2020/12/01 06:51:52;;;;;;;13.53;5.70;;;;;;;1.40;69.16;101700.44;1808433;78;21195;-62
2020/12/01 06:54:20;;;;;;;10.40;5.25;;;;;;;1.37;69.07;101701.80;1779509;78;21245;-60
2020/12/01 06:57:09;;;;;;;11.93;5.15;;;;;;;1.30;69.06;101711.89;1780805;78;21198;-62
2020/12/01 06:59:45;;;;;;;11.50;5.28;;;;;;;1.24;69.22;101712.84;1739142;80;21213;-62
2020/12/01 07:02:37;;;;;;;8.55;5.25;;;;;;;1.21;69.53;101709.46;1776976;79;21206;-61
2020/12/01 07:05:16;;;;;;;11.28;5.45;;;;;;;1.21;69.51;101714.23;1792879;79;21176;-62
2020/12/01 07:07:44;;;;;;;8.33;4.92;;;;;;;1.29;69.32;101709.75;1790916;78;21156;-60
2020/12/01 07:10:28;;;;;;;8.23;4.83;;;;;;;1.34;69.15;101711.38;1788610;78;21183;-59
2020/12/01 07:13:24;;;;;;;9.05;5.30;;;;;;;1.30;68.76;101711.89;1789639;79;22434;-61
2020/12/01 07:15:51;;;;;;;11.00;6.20;;;;;;;1.23;68.96;101711.61;1794644;78;21143;-60
2020/12/01 07:18:30;;;;;;;11.75;5.92;;;;;;;1.21;69.42;101721.13;1794347;78;21560;-60
2020/12/01 07:21:30;;;;;;;8.63;4.17;;;;;;;1.24;69.25;101708.95;1773316;78;21171;-60
2020/12/01 07:24:21;;;;;;;11.78;5.97;;;;;;;1.24;69.00;101710.25;1792091;78;21125;-60
2020/12/01 07:27:00;;;;;;;10.53;4.28;;;;;;;1.23;68.72;101713.75;1783287;78;21159;-61
2020/12/01 07:30:00;;;;;;;9.03;4.37;;;;;;;1.19;69.02;101709.49;1730678;80;21389;-60
2020/12/01 07:32:31;;;;;;;8.73;4.40;;;;;;;1.17;69.05;101706.08;1789619;78;21594;-60
2020/12/01 07:35:14;;;;;;;10.60;4.62;;;;;;;1.21;69.30;101711.64;1786849;79;21211;-60
2020/12/01 07:37:54;;;;;;;8.40;4.50;;;;;;;1.24;69.28;101706.81;1764397;79;21131;-58
2020/12/01 07:40:30;;;;;;;10.90;4.35;;;;;;;1.22;68.55;101703.41;1766444;80;21412;-60
2020/12/01 07:43:01;;;;;;;8.73;3.47;;;;;;;1.19;68.67;101700.87;1762686;79;21642;-60
2020/12/01 07:45:31;;;;;;;9.25;4.35;;;;;;;1.15;68.69;101702.67;1763097;80;21076;-62
2020/12/01 07:48:01;;;;;;;7.25;3.72;;;;;;;1.19;69.29;101706.05;1765351;79;21202;-60
2020/12/01 07:50:31;;;;;;;8.25;3.98;;;;;;;1.20;69.08;101706.48;1762980;80;21192;-60
2020/12/01 07:53:06;;;;;;;9.40;4.25;;;;;;;1.22;68.29;101702.11;1762649;79;21222;-60
2020/12/01 07:55:56;;;;;;;8.63;4.33;;;;;;;1.21;68.79;101696.08;1763727;79;23161;-61
2020/12/01 07:58:26;;;;;;;7.10;3.30;;;;;;;1.25;69.04;101697.71;1771388;79;21249;-61
2020/12/01 08:00:57;;;;;;;7.58;3.42;;;;;;;1.30;68.60;101701.06;1771342;79;21221;-59
2020/12/01 08:03:28;;;;;;;7.35;3.95;;;;;;;1.33;68.04;101692.38;1770726;80;21220;-60
2020/12/01 08:06:05;;;;;;;8.30;3.47;;;;;;;1.35;67.92;101681.98;1771508;79;21192;-62
2020/12/01 08:08:37;;;;;;;7.15;3.35;;;;;;;1.32;68.21;101685.93;1773064;79;21270;-60
2020/12/01 08:11:07;;;;;;;7.95;4.42;;;;;;;1.38;67.91;101685.78;1770927;80;21240;-60
2020/12/01 08:13:36;;;;;;;9.05;4.30;;;;;;;1.49;67.72;101691.61;1772904;79;21185;-59
2020/12/01 08:16:20;;;;;;;8.28;3.80;;;;;;;1.51;67.14;101695.02;1772034;79;21436;-58
2020/12/01 08:18:49;;;;;;;7.65;3.30;;;;;;;1.51;67.21;101692.42;1772252;79;21146;-62
2020/12/01 08:21:27;;;;;;;8.35;3.72;;;;;;;1.52;67.39;101694.59;1770187;79;21338;-60
2020/12/01 08:23:57;;;;;;;8.18;3.67;;;;;;;1.55;67.41;101690.19;1771193;79;21633;-60
2020/12/01 08:26:28;;;;;;;7.50;3.12;;;;;;;1.54;67.08;101687.63;1772852;79;21179;-60
2020/12/01 08:29:18;;;;;;;7.03;3.55;;;;;;;1.51;66.95;101685.94;1771786;79;21259;-59
2020/12/01 08:32:37;;;;;;;9.43;4.22;;;;;;;1.54;67.31;101691.52;1772357;79;21730;-60
2020/12/01 08:35:42;;;;;;;8.73;3.92;;;;;;;1.64;67.36;101693.86;1753297;79;21279;-60
2020/12/01 08:38:21;;;;;;;10.60;3.55;;;;;;;1.61;66.66;101695.22;1769361;80;22528;-60
2020/12/01 08:41:12;;;;;;;9.05;4.05;;;;;;;1.53;67.23;101695.86;1769515;79;21197;-60
2020/12/01 08:43:52;;;;;;;8.08;3.98;;;;;;;1.51;66.69;101691.13;1768494;79;22034;-60
2020/12/01 08:46:23;;;;;;;6.62;2.83;;;;;;;1.51;67.17;101700.66;1767534;79;21558;-61
2020/12/01 08:49:23;;;;;;;7.97;3.70;;;;;;;1.53;67.15;101693.69;1768385;79;21257;-60
2020/12/01 08:51:58;;;;;;;6.80;3.10;;;;;;;1.54;66.93;101691.52;1764685;79;21217;-61
2020/12/01 08:54:34;;;;;;;7.10;3.30;;;;;;;1.53;66.24;101694.56;1722644;81;21558;-59
2020/12/01 08:57:16;;;;;;;9.37;3.50;;;;;;;1.53;66.37;101690.67;1766034;79;21385;-65
2020/12/01 08:59:57;;;;;;;7.12;3.37;;;;;;;1.52;66.73;101696.73;1763571;79;21209;-60
2020/12/01 09:02:31;;;;;;;7.05;3.90;;;;;;;1.58;66.70;101685.36;1762225;79;21254;-60
2020/12/01 09:05:00;;;;;;;7.45;3.20;;;;;;;1.61;66.24;101680.95;1765958;79;21552;-60
2020/12/01 09:07:37;;;;;;;6.95;3.80;;;;;;;1.62;65.62;101682.67;1767061;79;21574;-60
2020/12/01 09:10:12;;;;;;;7.25;3.35;;;;;;;1.59;65.83;101680.14;1766065;79;21554;-60
2020/12/01 09:12:56;;;;;;;6.30;3.22;;;;;;;1.55;66.08;101681.56;1764180;79;21185;-59
2020/12/01 09:18:25;;;;;;;9.58;3.00;;;;;;;1.51;66.61;101677.31;1872354;74;22963;-60
2020/12/01 09:23:26;;;;;;;9.90;4.20;;;;;;;1.49;67.50;101663.08;1843108;77;21616;-60
2020/12/01 09:25:54;;;;;;;7.47;3.42;;;;;;;1.50;67.28;101668.68;1844809;75;21203;-61
2020/12/01 09:28:26;;;;;;;7.25;2.80;;;;;;;1.50;67.48;101667.39;1842939;76;21439;-62
2020/12/01 09:30:59;;;;;;;9.30;3.92;;;;;;;1.48;67.91;101657.49;1843719;77;21167;-60
2020/12/01 09:33:27;;;;;;;6.80;3.00;;;;;;;1.51;68.44;101653.51;1843998;77;21210;-61
2020/12/01 09:35:55;;;;;;;8.08;3.85;;;;;;;1.60;68.42;101653.78;1782942;78;22798;-59
2020/12/01 09:38:24;;;;;;;11.43;3.35;;;;;;;1.59;67.81;101650.76;1779278;78;21200;-60
2020/12/01 09:40:53;;;;;;;7.80;3.85;;;;;;;1.52;67.42;101651.34;1774562;78;21191;-61
2020/12/01 09:43:29;;;;;;;8.40;3.62;;;;;;;1.48;67.84;101645.37;1774289;80;21200;-61
2020/12/01 09:45:53;;;;;;;7.42;3.50;;;;;;;1.52;68.15;101646.60;1787646;78;21250;-60
2020/12/01 09:48:32;;;;;;;11.20;3.75;;;;;;;1.54;68.32;101647.41;1788840;79;21422;-60
2020/12/01 09:50:58;;;;;;;5.70;2.75;;;;;;;1.60;67.77;101649.43;1789963;78;21225;-60
2020/12/01 10:36:26;;;;;;;9.25;3.12;;;;;;;1.62;68.75;101626.89;1788664;78;21197;-60
2020/12/01 10:38:54;;;;;;;6.33;3.25;;;;;;;1.63;68.91;101616.94;1787159;79;21414;-63
2020/12/01 10:41:29;;;;;;;8.30;4.33;;;;;;;1.71;68.94;101630.16;1785878;79;21148;-62
2020/12/01 10:43:56;;;;;;;8.83;3.08;;;;;;;1.70;68.96;101619.36;1786141;78;21696;-64
2020/12/01 10:46:24;;;;;;;8.38;2.90;;;;;;;1.66;69.41;101622.05;1786697;77;21171;-61
2020/12/01 10:48:51;;;;;;;9.55;3.65;;;;;;;1.60;69.42;101606.63;1785624;79;21769;-63
2020/12/01 10:51:19;;;;;;;8.23;3.50;;;;;;;1.61;69.68;101610.91;1784463;79;21186;-63
2020/12/01 10:53:46;;;;;;;7.03;3.52;;;;;;;1.71;69.77;101613.30;1785995;79;21163;-63
2020/12/01 10:56:14;;;;;;;7.08;3.40;;;;;;;1.76;70.03;101617.48;1786739;79;22147;-65
2020/12/01 10:58:43;;;;;;;7.55;3.90;;;;;;;1.76;70.01;101618.78;1784607;79;21523;-64
2020/12/01 11:01:10;;;;;;;9.63;4.37;;;;;;;1.75;69.63;101617.52;1785399;79;21144;-62
2020/12/01 11:03:38;;;;;;;8.35;3.62;;;;;;;1.72;69.77;101615.02;1786459;79;21207;-64
2020/12/01 11:06:06;;;;;;;6.78;3.12;;;;;;;1.75;70.09;101614.92;1786208;78;21180;-63
2020/12/01 11:08:33;;;;;;;5.58;2.87;;;;;;;1.84;70.46;101615.56;1787644;79;21433;-61
2020/12/01 11:11:05;;;;;;;8.10;3.62;;;;;;;1.91;70.51;101607.18;1786367;77;21230;-63
2020/12/01 11:13:33;;;;;;;9.38;4.17;;;;;;;1.88;70.04;101603.36;1784327;77;21890;-62
2020/12/01 11:16:01;;;;;;;8.10;3.98;;;;;;;1.80;70.07;101604.86;1784973;79;21241;-62
2020/12/01 11:18:29;;;;;;;7.70;3.72;;;;;;;1.70;70.64;101598.19;1785935;78;21215;-62
2020/12/01 11:20:56;;;;;;;7.30;3.45;;;;;;;1.67;70.74;101596.95;1785692;78;23395;-66
2020/12/01 11:23:24;;;;;;;7.20;3.58;;;;;;;1.73;70.76;101602.43;1787335;77;22583;-66
2020/12/01 11:25:51;;;;;;;9.95;4.30;;;;;;;1.71;71.02;101600.33;1786388;77;21717;-62
2020/12/01 11:28:19;;;;;;;8.60;3.02;;;;;;;1.67;70.81;101602.98;1784353;77;21211;-63
2020/12/01 11:30:48;;;;;;;8.00;3.42;;;;;;;1.61;70.63;101599.68;1786058;77;21152;-64
2020/12/01 11:33:15;;;;;;;9.05;3.90;;;;;;;1.54;70.82;101598.97;1786005;79;21613;-63
2020/12/01 11:35:48;;;;;;;7.10;3.70;;;;;;;1.61;70.92;101591.44;1784538;79;21967;-65
2020/12/01 11:38:16;;;;;;;8.35;4.03;;;;;;;1.65;70.77;101598.28;1784039;78;21604;-62
2020/12/01 11:40:44;;;;;;;7.83;3.62;;;;;;;1.61;70.90;101600.52;1785377;79;21610;-64
2020/12/01 11:43:11;;;;;;;7.85;3.42;;;;;;;1.58;70.81;101589.37;1786573;79;21475;-62
2020/12/01 11:45:38;;;;;;;6.67;2.98;;;;;;;1.50;70.89;101596.05;1784861;78;21266;-61
2020/12/01 11:48:06;;;;;;;8.30;3.77;;;;;;;1.56;71.06;101595.05;1784633;79;21178;-63
2020/12/01 11:50:35;;;;;;;8.48;3.45;;;;;;;1.61;70.64;101588.84;1785086;78;21171;-61
2020/12/01 11:53:03;;;;;;;8.20;3.80;;;;;;;1.61;70.98;101593.20;1783548;77;21183;-64
2020/12/01 11:55:30;;;;;;;7.65;3.72;;;;;;;1.57;71.63;101598.06;1785507;79;21621;-62
2020/12/01 11:57:59;;;;;;;7.85;3.75;;;;;;;1.57;71.60;101600.20;1786221;79;22284;-62
2020/12/01 12:00:29;;;;;;;6.55;3.47;;;;;;;1.68;71.73;101593.45;1784849;78;21218;-63
2020/12/01 12:02:56;;;;;;;8.85;3.83;;;;;;;1.72;71.65;101602.05;1785232;79;21374;-62
2020/12/01 12:05:24;;;;;;;12.18;4.42;;;;;;;1.71;71.81;101601.17;1784187;79;21423;-63
2020/12/01 12:07:51;;;;;;;7.67;3.90;;;;;;;1.69;71.73;101592.58;1786817;78;21175;-64
2020/12/01 12:10:19;;;;;;;6.72;3.22;;;;;;;1.66;71.43;101588.75;1785500;79;21312;-62
2020/12/01 12:12:48;;;;;;;7.17;3.75;;;;;;;1.65;71.47;101587.91;1787192;77;21223;-63
2020/12/01 12:15:16;;;;;;;10.05;4.30;;;;;;;1.72;71.19;101586.02;1786101;77;21144;-63
2020/12/01 12:17:44;;;;;;;8.18;3.62;;;;;;;1.66;70.78;101583.56;1786200;78;21763;-63
2020/12/01 12:20:13;;;;;;;8.90;3.98;;;;;;;1.60;71.28;101587.16;1785872;79;21202;-64
2020/12/01 12:22:41;;;;;;;7.87;4.03;;;;;;;1.53;71.57;101588.20;1787046;78;22558;-65
2020/12/01 12:25:08;;;;;;;8.00;3.90;;;;;;;1.57;71.70;101591.12;1787181;78;21207;-69
2020/12/01 12:27:36;;;;;;;9.05;3.92;;;;;;;1.64;71.76;101591.83;1786612;78;21108;-67
2020/12/01 12:30:04;;;;;;;8.05;4.62;;;;;;;1.61;72.15;101596.63;1786167;79;21192;-63
2020/12/01 12:32:32;;;;;;;7.95;3.17;;;;;;;1.59;72.51;101604.06;1785875;79;21733;-68
2020/12/01 12:35:00;;;;;;;8.13;3.58;;;;;;;1.54;72.51;101610.64;1785769;79;21325;-66
2020/12/01 12:37:28;;;;;;;6.87;3.12;;;;;;;1.57;72.81;101614.92;1786798;79;21198;-66
2020/12/01 12:39:56;;;;;;;9.08;4.65;;;;;;;1.67;72.74;101615.96;1786079;79;21116;-68
2020/12/01 12:42:25;;;;;;;6.70;3.98;;;;;;;1.71;72.61;101613.30;1787094;79;21741;-69
2020/12/01 12:44:53;;;;;;;6.83;3.67;;;;;;;1.67;72.79;101608.62;1787398;78;21458;-61
2020/12/01 12:47:20;;;;;;;7.22;4.10;;;;;;;1.61;72.68;101618.69;1788742;78;21239;-63
2020/12/01 12:49:49;;;;;;;9.20;4.28;;;;;;;1.58;73.31;101617.91;1785129;77;21259;-63
2020/12/01 12:52:18;;;;;;;7.78;4.00;;;;;;;1.60;72.92;101614.41;1788694;77;21507;-66
2020/12/01 12:54:45;;;;;;;8.85;4.35;;;;;;;1.63;73.17;101609.15;1783918;79;21227;-60